createdAt,value
2023-09-05T00:00:42.233Z,9.30
2023-09-05T00:01:39.285Z,9.55
2023-09-05T00:02:37.534Z,9.98
2023-09-05T00:03:35.041Z,9.40
2023-09-05T00:04:32.026Z,8.95
2023-09-05T00:05:29.062Z,9.57
2023-09-05T00:06:26.100Z,9.98
2023-09-05T00:07:23.548Z,9.18
2023-09-05T00:08:20.636Z,9.50
2023-09-05T00:09:19.830Z,9.93
2023-09-05T00:10:16.830Z,9.55
2023-09-05T00:11:13.798Z,9.70
2023-09-05T00:12:10.797Z,9.40
2023-09-05T00:13:12.496Z,8.65
2023-09-05T00:14:11.062Z,9.63
2023-09-05T00:15:12.792Z,10.90
2023-09-05T00:16:09.942Z,9.30
2023-09-05T00:17:07.086Z,9.68
2023-09-05T00:18:04.324Z,9.15
2023-09-05T00:19:01.330Z,10.13
2023-09-05T00:19:58.256Z,9.57
2023-09-05T00:20:57.847Z,9.40
2023-09-05T00:21:54.800Z,9.13
2023-09-05T00:22:51.710Z,9.77
2023-09-05T00:23:48.687Z,10.60
2023-09-05T00:24:46.106Z,10.27
2023-09-05T00:25:43.271Z,9.70
2023-09-05T00:26:41.317Z,10.00
2023-09-05T00:27:40.591Z,9.93
2023-09-05T00:28:37.678Z,10.30
2023-09-05T00:29:34.730Z,9.23
2023-09-05T00:30:36.244Z,10.35
2023-09-05T00:31:34.299Z,8.98
2023-09-05T00:32:34.311Z,9.23
2023-09-05T00:33:31.661Z,9.65
2023-09-05T00:34:30.293Z,9.65
2023-09-05T00:35:27.236Z,9.07
2023-09-05T00:36:25.239Z,10.38
2023-09-05T00:37:25.285Z,9.50
2023-09-05T00:38:24.122Z,10.30
2023-09-05T00:39:21.429Z,9.90
2023-09-05T00:40:20.456Z,9.82
2023-09-05T00:41:17.420Z,10.02
2023-09-05T00:42:16.358Z,9.60
2023-09-05T00:43:13.376Z,9.45
2023-09-05T00:44:10.475Z,10.27
2023-09-05T00:45:08.089Z,9.88
2023-09-05T00:46:07.706Z,10.52
2023-09-05T00:47:05.655Z,10.82
2023-09-05T00:48:03.977Z,10.65
2023-09-05T00:49:05.322Z,10.30
2023-09-05T00:50:05.485Z,9.85
2023-09-05T00:51:03.237Z,10.40
2023-09-05T00:52:01.360Z,10.38
2023-09-05T00:52:58.297Z,11.68
2023-09-05T00:53:55.273Z,10.15
2023-09-05T00:54:52.530Z,10.32
2023-09-05T00:55:49.490Z,10.10
2023-09-05T00:56:47.072Z,10.13
2023-09-05T00:57:44.638Z,9.98
2023-09-05T00:58:41.620Z,10.00
2023-09-05T00:59:38.645Z,10.77
2023-09-05T01:00:35.749Z,10.38
2023-09-05T01:01:32.888Z,10.23
2023-09-05T01:02:29.968Z,10.20
2023-09-05T01:03:27.327Z,10.98
2023-09-05T01:04:27.646Z,10.15
2023-09-05T01:05:26.946Z,10.52
2023-09-05T01:06:38.787Z,11.15
2023-09-05T01:08:07.221Z,10.55
2023-09-05T01:09:14.354Z,10.30
2023-09-05T01:10:13.441Z,10.35
2023-09-05T01:11:10.341Z,10.27
2023-09-05T01:12:08.805Z,9.88
2023-09-05T01:13:06.242Z,11.57
2023-09-05T01:14:03.297Z,10.65
2023-09-05T01:15:00.438Z,11.05
2023-09-05T01:15:57.509Z,11.63
2023-09-05T01:16:54.834Z,10.63
2023-09-05T01:17:55.705Z,10.48
2023-09-05T01:18:52.738Z,11.05
2023-09-05T01:19:56.389Z,11.40
2023-09-05T01:21:07.504Z,11.48
2023-09-05T01:22:16.245Z,10.40
2023-09-05T01:23:18.934Z,11.20
2023-09-05T01:24:23.630Z,10.35
2023-09-05T01:25:21.103Z,10.98
2023-09-05T01:26:18.586Z,10.32
2023-09-05T01:27:19.185Z,9.82
2023-09-05T01:29:13.542Z,9.63
2023-09-05T01:30:11.190Z,9.32
2023-09-05T01:31:09.672Z,9.15
2023-09-05T01:32:10.265Z,9.93
2023-09-05T01:33:07.436Z,10.43
2023-09-05T01:34:04.496Z,9.77
2023-09-05T01:35:01.572Z,10.27
2023-09-05T01:35:58.509Z,10.73
2023-09-05T01:36:55.518Z,10.63
2023-09-05T01:37:52.616Z,11.12
2023-09-05T01:38:49.681Z,10.77
2023-09-05T01:39:46.810Z,10.90
2023-09-05T01:40:43.889Z,10.25
2023-09-05T01:41:40.944Z,10.85
2023-09-05T01:42:39.877Z,11.52
2023-09-05T01:43:37.605Z,10.63
2023-09-05T01:44:36.292Z,10.45
2023-09-05T01:45:33.397Z,10.80
2023-09-05T01:46:30.521Z,10.55
2023-09-05T01:47:27.545Z,11.43
2023-09-05T01:48:24.527Z,10.18
2023-09-05T01:49:21.675Z,10.85
2023-09-05T01:50:20.889Z,10.48
2023-09-05T01:51:18.086Z,10.88
2023-09-05T01:52:15.122Z,10.70
2023-09-05T01:53:12.137Z,10.43
2023-09-05T01:54:09.175Z,11.18
2023-09-05T01:55:06.622Z,10.55
2023-09-05T01:56:03.694Z,10.75
2023-09-05T01:57:00.839Z,10.85
2023-09-05T01:57:57.825Z,11.23
2023-09-05T01:58:55.138Z,10.90
2023-09-05T01:59:52.140Z,11.00
2023-09-05T02:00:49.193Z,11.18
2023-09-05T02:01:47.140Z,11.10
2023-09-05T02:02:44.116Z,10.88
2023-09-05T02:03:41.243Z,10.65
2023-09-05T02:04:38.228Z,11.75
2023-09-05T02:05:35.404Z,11.20
2023-09-05T02:06:32.618Z,11.57
2023-09-05T02:07:29.750Z,10.43
2023-09-05T02:08:26.718Z,11.38
2023-09-05T02:09:23.786Z,11.10
2023-09-05T02:10:20.805Z,11.02
2023-09-05T02:11:17.912Z,10.68
2023-09-05T02:12:15.952Z,10.77
2023-09-05T02:13:14.356Z,11.12
2023-09-05T02:14:11.388Z,10.13
2023-09-05T02:15:08.888Z,11.05
2023-09-05T02:16:05.872Z,11.70
2023-09-05T02:17:02.919Z,12.20
2023-09-05T02:18:02.096Z,10.95
2023-09-05T02:18:59.238Z,11.23
2023-09-05T02:19:56.185Z,11.75
2023-09-05T02:20:59.088Z,11.48
2023-09-05T02:21:57.116Z,11.63
2023-09-05T02:22:54.306Z,11.38
2023-09-05T02:23:51.289Z,11.75
2023-09-05T02:24:48.424Z,11.30
2023-09-05T02:25:49.274Z,10.90
2023-09-05T02:27:43.100Z,11.12
2023-09-05T02:28:40.380Z,10.00
2023-09-05T02:29:37.581Z,10.80
2023-09-05T02:30:39.691Z,10.68
2023-09-05T02:31:36.856Z,10.57
2023-09-05T02:32:34.072Z,10.05
2023-09-05T02:33:31.271Z,10.73
2023-09-05T02:34:28.279Z,11.63
2023-09-05T02:35:28.674Z,10.60
2023-09-05T02:36:25.781Z,10.88
2023-09-05T02:37:22.831Z,11.00
2023-09-05T02:38:20.150Z,11.07
2023-09-05T02:39:17.271Z,10.80
2023-09-05T02:40:14.623Z,11.02
2023-09-05T02:41:15.496Z,10.90
2023-09-05T02:42:12.461Z,10.57
2023-09-05T02:43:09.624Z,11.63
2023-09-05T02:44:06.620Z,11.05
2023-09-05T02:45:04.004Z,11.05
2023-09-05T02:46:01.144Z,10.55
2023-09-05T02:46:58.530Z,10.85
2023-09-05T02:47:56.476Z,10.45
2023-09-05T02:48:53.673Z,11.23
2023-09-05T02:49:50.619Z,11.20
2023-09-05T02:50:47.589Z,11.25
2023-09-05T02:51:44.547Z,11.50
2023-09-05T02:52:47.336Z,11.88
2023-09-05T02:53:45.086Z,10.98
2023-09-05T02:54:42.050Z,11.98
2023-09-05T02:55:45.491Z,11.07
2023-09-05T02:56:42.525Z,11.77
2023-09-05T02:57:39.699Z,10.60
2023-09-05T02:58:36.783Z,11.02
2023-09-05T02:59:33.878Z,11.82
2023-09-05T03:00:30.817Z,12.15
2023-09-05T03:01:27.890Z,12.13
2023-09-05T03:02:25.395Z,11.93
2023-09-05T03:03:22.513Z,11.38
2023-09-05T03:04:19.498Z,10.57
2023-09-05T03:05:16.899Z,11.38
2023-09-05T03:06:15.734Z,12.05
2023-09-05T03:07:12.674Z,11.50
2023-09-05T03:08:09.785Z,10.80
2023-09-05T03:09:06.798Z,10.88
2023-09-05T03:10:04.590Z,10.38
2023-09-05T03:11:01.630Z,10.63
2023-09-05T03:11:58.755Z,11.23
2023-09-05T03:12:55.882Z,11.05
2023-09-05T03:13:52.954Z,11.57
2023-09-05T03:14:50.077Z,10.77
2023-09-05T03:15:51.141Z,11.82
2023-09-05T03:16:50.214Z,13.00
2023-09-05T03:17:48.061Z,10.98
2023-09-05T03:18:45.168Z,11.05
2023-09-05T03:19:42.096Z,10.75
2023-09-05T03:20:39.075Z,10.57
2023-09-05T03:21:36.008Z,10.48
2023-09-05T03:22:32.978Z,10.80
2023-09-05T03:23:30.047Z,10.98
2023-09-05T03:24:27.585Z,10.77
2023-09-05T03:25:24.598Z,11.38
2023-09-05T03:26:21.677Z,11.23
2023-09-05T03:27:18.922Z,13.02
2023-09-05T03:28:15.993Z,11.48
2023-09-05T03:29:14.424Z,10.82
2023-09-05T03:30:12.015Z,11.23
2023-09-05T03:31:09.710Z,12.55
2023-09-05T03:32:06.706Z,12.32
2023-09-05T03:33:03.859Z,11.45
2023-09-05T03:34:00.789Z,10.88
2023-09-05T03:34:57.857Z,11.60
2023-09-05T03:35:54.809Z,11.10
2023-09-05T03:36:51.781Z,11.88
2023-09-05T03:37:48.739Z,11.52
2023-09-05T03:38:45.687Z,11.25
2023-09-05T03:39:42.820Z,11.43
2023-09-05T03:40:39.903Z,11.43
2023-09-05T03:41:37.061Z,11.27
2023-09-05T03:42:34.048Z,11.90
2023-09-05T03:43:31.190Z,11.27
2023-09-05T03:44:28.128Z,11.32
2023-09-05T03:45:25.348Z,11.68
2023-09-05T03:46:22.572Z,11.60
2023-09-05T03:47:19.576Z,11.32
2023-09-05T03:48:17.138Z,11.00
2023-09-05T03:49:14.273Z,11.52
2023-09-05T03:50:11.444Z,11.80
2023-09-05T03:51:08.938Z,12.25
2023-09-05T03:52:07.015Z,11.27
2023-09-05T03:53:04.198Z,10.57
2023-09-05T03:54:02.642Z,11.52
2023-09-05T03:54:59.961Z,11.82
2023-09-05T03:55:56.973Z,11.43
2023-09-05T03:56:53.891Z,11.05
2023-09-05T03:57:50.895Z,11.48
2023-09-05T03:58:47.868Z,10.95
2023-09-05T03:59:44.910Z,11.82
2023-09-05T04:00:41.992Z,11.60
2023-09-05T04:01:39.232Z,12.23
2023-09-05T04:02:36.320Z,12.40
2023-09-05T04:03:36.098Z,11.10
2023-09-05T04:04:33.159Z,11.10
2023-09-05T04:05:30.868Z,11.70
2023-09-05T04:06:28.026Z,11.52
2023-09-05T04:07:25.079Z,10.55
2023-09-05T04:08:22.037Z,11.27
2023-09-05T04:09:19.063Z,11.25
2023-09-05T04:10:16.080Z,11.45
2023-09-05T04:11:13.158Z,11.30
2023-09-05T04:12:10.290Z,11.00
2023-09-05T04:13:07.452Z,11.02
2023-09-05T04:14:04.608Z,10.88
2023-09-05T04:15:01.520Z,10.85
2023-09-05T04:16:06.851Z,11.90
2023-09-05T04:17:04.078Z,11.75
2023-09-05T04:18:01.313Z,12.30
2023-09-05T04:18:58.358Z,12.23
2023-09-05T04:19:55.921Z,12.10
2023-09-05T04:20:59.343Z,12.48
2023-09-05T04:21:56.387Z,12.43
2023-09-05T04:22:53.442Z,13.65
2023-09-05T04:23:50.506Z,12.50
2023-09-05T04:24:47.557Z,12.02
2023-09-05T04:25:44.584Z,11.60
2023-09-05T04:26:41.779Z,13.10
2023-09-05T04:27:38.875Z,13.00
2023-09-05T04:28:35.976Z,12.95
2023-09-05T04:29:33.093Z,12.40
2023-09-05T04:30:30.083Z,12.88
2023-09-05T04:31:27.187Z,12.27
2023-09-05T04:32:32.445Z,12.73
2023-09-05T04:33:33.515Z,11.57
2023-09-05T04:34:31.279Z,12.13
2023-09-05T04:35:28.237Z,13.18
2023-09-05T04:36:26.314Z,12.85
2023-09-05T04:37:23.462Z,13.18
2023-09-05T04:38:22.599Z,13.30
2023-09-05T04:39:19.699Z,14.20
2023-09-05T04:40:17.520Z,13.10
2023-09-05T04:41:15.360Z,12.98
2023-09-05T04:42:12.325Z,12.48
2023-09-05T04:43:09.319Z,13.18
2023-09-05T04:44:06.729Z,12.02
2023-09-05T04:45:03.880Z,14.38
2023-09-05T04:46:00.899Z,14.20
2023-09-05T04:47:22.394Z,13.30
2023-09-05T04:48:19.554Z,13.70
2023-09-05T04:49:16.628Z,12.95
2023-09-05T04:50:13.617Z,14.25
2023-09-05T04:51:10.659Z,13.95
2023-09-05T04:52:07.694Z,14.15
2023-09-05T04:53:04.996Z,14.23
2023-09-05T04:54:02.126Z,14.15
2023-09-05T04:55:00.842Z,13.95
2023-09-05T04:56:01.544Z,13.15
2023-09-05T04:57:56.163Z,12.02
2023-09-05T04:58:53.167Z,12.50
2023-09-05T04:59:50.255Z,12.85
2023-09-05T05:00:49.154Z,12.27
2023-09-05T05:01:46.239Z,12.43
2023-09-05T05:02:43.215Z,11.77
2023-09-05T05:03:40.352Z,11.43
2023-09-05T05:04:38.760Z,11.25
2023-09-05T05:05:35.876Z,12.75
2023-09-05T05:06:33.048Z,12.68
2023-09-05T05:07:30.391Z,11.93
2023-09-05T05:08:27.828Z,12.00
2023-09-05T05:09:25.301Z,13.25
2023-09-05T05:10:22.364Z,11.45
2023-09-05T05:11:19.410Z,12.35
2023-09-05T05:12:17.409Z,12.52
2023-09-05T05:13:14.636Z,12.13
2023-09-05T05:14:11.711Z,12.10
2023-09-05T05:15:09.689Z,12.20
2023-09-05T05:16:06.695Z,11.88
2023-09-05T05:17:04.504Z,11.82
2023-09-05T05:18:01.789Z,11.63
2023-09-05T05:18:58.942Z,11.20
2023-09-05T05:19:57.728Z,12.07
2023-09-05T05:20:54.902Z,10.77
2023-09-05T05:21:52.864Z,10.52
2023-09-05T05:22:49.875Z,10.80
2023-09-05T05:23:46.957Z,11.00
2023-09-05T05:24:44.229Z,12.18
2023-09-05T05:25:41.242Z,10.85
2023-09-05T05:26:38.343Z,11.40
2023-09-05T05:27:35.452Z,10.68
2023-09-05T05:28:32.513Z,11.10
2023-09-05T05:29:33.681Z,11.18
2023-09-05T05:30:35.893Z,10.75
2023-09-05T05:31:35.041Z,11.75
2023-09-05T05:32:32.010Z,10.88
2023-09-05T05:33:29.113Z,11.40
2023-09-05T05:34:26.380Z,10.45
2023-09-05T05:35:23.549Z,10.32
2023-09-05T05:36:20.563Z,10.55
2023-09-05T05:37:18.465Z,10.88
2023-09-05T05:38:15.408Z,11.98
2023-09-05T05:39:13.289Z,10.38
2023-09-05T05:40:12.136Z,10.75
2023-09-05T05:41:10.860Z,10.13
2023-09-05T05:42:08.024Z,10.70
2023-09-05T05:43:05.308Z,10.73
2023-09-05T05:44:02.851Z,9.90
2023-09-05T05:44:59.980Z,10.35
2023-09-05T05:45:57.256Z,11.35
2023-09-05T05:46:59.426Z,11.12
2023-09-05T05:47:58.413Z,10.75
2023-09-05T05:49:01.160Z,10.63
2023-09-05T05:49:59.188Z,11.27
2023-09-05T05:50:57.507Z,10.82
2023-09-05T05:51:54.591Z,10.95
2023-09-05T05:52:51.786Z,11.90
2023-09-05T05:53:49.478Z,11.38
2023-09-05T05:54:46.620Z,11.48
2023-09-05T05:55:43.627Z,10.75
2023-09-05T05:56:40.782Z,12.20
2023-09-05T05:57:38.233Z,11.15
2023-09-05T05:58:36.833Z,11.95
2023-09-05T05:59:33.902Z,14.10
2023-09-05T06:00:31.358Z,12.73
2023-09-05T06:01:28.381Z,12.68
2023-09-05T06:02:25.366Z,11.93
2023-09-05T06:03:23.693Z,12.60
2023-09-05T06:04:21.638Z,12.10
2023-09-05T06:05:18.956Z,13.20
2023-09-05T06:06:16.153Z,12.93
2023-09-05T06:07:13.315Z,12.27
2023-09-05T06:08:10.574Z,11.85
2023-09-05T06:09:07.728Z,12.82
2023-09-05T06:10:05.461Z,12.68
2023-09-05T06:11:02.610Z,12.30
2023-09-05T06:12:00.483Z,12.63
2023-09-05T06:12:57.459Z,13.18
2023-09-05T06:13:54.588Z,12.35
2023-09-05T06:14:51.777Z,11.30
2023-09-05T06:15:48.957Z,11.52
2023-09-05T06:16:49.423Z,11.30
2023-09-05T06:17:46.690Z,11.73
2023-09-05T06:18:43.958Z,11.50
2023-09-05T06:19:42.686Z,11.80
2023-09-05T06:20:39.908Z,12.68
2023-09-05T06:21:37.085Z,11.75
2023-09-05T06:22:34.205Z,11.65
2023-09-05T06:23:31.881Z,11.63
2023-09-05T06:24:29.463Z,11.60
2023-09-05T06:25:26.932Z,11.23
2023-09-05T06:26:23.902Z,11.35
2023-09-05T06:27:21.374Z,12.00
2023-09-05T06:28:18.869Z,11.02
2023-09-05T06:29:15.781Z,10.80
2023-09-05T06:30:14.045Z,10.50
2023-09-05T06:31:11.149Z,10.77
2023-09-05T06:32:08.373Z,8.55
2023-09-05T06:33:05.827Z,11.25
2023-09-05T06:34:03.573Z,11.63
2023-09-05T06:35:00.641Z,11.60
2023-09-05T06:35:57.638Z,10.77
2023-09-05T06:36:54.991Z,10.00
2023-09-05T06:37:58.033Z,10.07
2023-09-05T06:38:55.030Z,10.50
2023-09-05T06:39:52.504Z,10.50
2023-09-05T06:40:49.490Z,9.60
2023-09-05T06:41:46.567Z,10.63
2023-09-05T06:42:43.990Z,10.68
2023-09-05T06:43:41.038Z,11.15
2023-09-05T06:44:38.126Z,11.00
2023-09-05T06:45:35.908Z,11.02
2023-09-05T06:46:37.358Z,10.70
2023-09-05T06:47:35.227Z,10.35
2023-09-05T06:48:32.793Z,10.65
2023-09-05T06:49:29.883Z,10.95
2023-09-05T06:50:27.071Z,9.70
2023-09-05T06:51:24.143Z,10.48
2023-09-05T06:52:21.131Z,10.50
2023-09-05T06:53:18.319Z,10.85
2023-09-05T06:54:15.391Z,9.65
2023-09-05T06:55:13.650Z,10.45
2023-09-05T06:56:11.104Z,10.13
2023-09-05T06:57:09.801Z,10.20
2023-09-05T06:58:07.344Z,10.63
2023-09-05T06:59:04.447Z,10.10
2023-09-05T07:00:01.487Z,10.98
2023-09-05T07:00:58.519Z,10.30
2023-09-05T07:01:55.860Z,10.77
2023-09-05T07:02:52.959Z,10.10
2023-09-05T07:03:50.658Z,9.75
2023-09-05T07:04:47.942Z,10.43
2023-09-05T07:05:59.995Z,9.98
2023-09-05T07:07:05.870Z,10.35
2023-09-05T07:08:02.722Z,9.68
2023-09-05T07:08:59.734Z,9.85
2023-09-05T07:09:56.876Z,10.13
2023-09-05T07:10:53.929Z,10.43
2023-09-05T07:11:50.965Z,10.95
2023-09-05T07:12:47.888Z,10.60
2023-09-05T07:13:44.936Z,9.52
2023-09-05T07:14:45.355Z,10.50
2023-09-05T07:16:39.518Z,10.35
2023-09-05T07:17:36.821Z,10.55
2023-09-05T07:18:33.869Z,11.32
2023-09-05T07:19:30.817Z,11.88
2023-09-05T07:20:27.820Z,11.10
2023-09-05T07:21:25.775Z,11.57
2023-09-05T07:22:24.515Z,12.70
2023-09-05T07:23:21.527Z,11.73
2023-09-05T07:24:18.810Z,11.23
2023-09-05T07:25:15.879Z,10.57
2023-09-05T07:26:12.910Z,11.93
2023-09-05T07:27:11.626Z,13.23
2023-09-05T07:28:08.760Z,11.70
2023-09-05T07:29:12.116Z,11.93
2023-09-05T07:30:09.756Z,10.27
2023-09-05T07:31:06.948Z,9.48
2023-09-05T07:32:04.172Z,9.90
2023-09-05T07:33:01.330Z,9.63
2023-09-05T07:34:01.017Z,9.75
2023-09-05T07:34:58.177Z,9.70
2023-09-05T07:35:55.378Z,9.50
2023-09-05T07:36:52.860Z,10.98
2023-09-05T07:37:49.902Z,10.65
2023-09-05T07:38:46.931Z,10.27
2023-09-05T07:39:51.326Z,10.32
2023-09-05T07:41:01.612Z,9.35
2023-09-05T07:41:58.701Z,9.07
2023-09-05T07:42:56.912Z,8.77
2023-09-05T07:43:53.899Z,9.43
2023-09-05T07:44:50.887Z,9.35
2023-09-05T07:45:48.779Z,8.90
2023-09-05T07:46:46.027Z,8.50
2023-09-05T07:47:43.179Z,8.27
2023-09-05T07:48:40.336Z,7.60
2023-09-05T07:49:38.506Z,7.78
2023-09-05T07:50:36.407Z,7.00
2023-09-05T07:51:33.540Z,6.97
2023-09-05T07:52:30.600Z,7.03
2023-09-05T07:53:27.950Z,6.70
2023-09-05T07:54:27.386Z,6.40
2023-09-05T07:55:24.454Z,7.35
2023-09-05T07:56:21.559Z,7.10
2023-09-05T07:57:18.606Z,7.10
2023-09-05T07:58:15.663Z,7.28
2023-09-05T07:59:12.599Z,6.78
2023-09-05T08:00:16.309Z,6.82
2023-09-05T08:01:13.962Z,6.70
2023-09-05T08:02:12.169Z,6.45
2023-09-05T08:03:09.314Z,7.10
2023-09-05T08:04:07.246Z,6.60
2023-09-05T08:05:06.342Z,6.60
2023-09-05T08:06:06.796Z,6.80
2023-09-05T08:07:08.308Z,6.43
2023-09-05T08:08:05.671Z,6.20
2023-09-05T08:09:02.829Z,6.85
2023-09-05T08:10:01.768Z,6.32
2023-09-05T08:10:59.217Z,7.10
2023-09-05T08:11:56.376Z,6.45
2023-09-05T08:12:53.354Z,5.85
2023-09-05T08:13:50.370Z,5.85
2023-09-05T08:14:47.460Z,6.15
2023-09-05T08:15:46.045Z,6.20
2023-09-05T08:16:43.124Z,5.57
2023-09-05T08:17:40.267Z,6.78
2023-09-05T08:18:37.179Z,6.03
2023-09-05T08:19:34.230Z,6.07
2023-09-05T08:20:31.507Z,5.80
2023-09-05T08:21:28.729Z,6.30
2023-09-05T08:22:26.110Z,5.85
2023-09-05T08:23:24.056Z,5.62
2023-09-05T08:24:21.241Z,5.90
2023-09-05T08:25:19.237Z,6.32
2023-09-05T08:26:17.933Z,6.37
2023-09-05T08:27:15.713Z,6.20
2023-09-05T08:28:14.251Z,6.10
2023-09-05T08:29:11.231Z,5.82
2023-09-05T08:30:12.617Z,5.80
2023-09-05T08:31:18.298Z,5.78
2023-09-05T08:32:16.307Z,5.97
2023-09-05T08:33:13.442Z,6.12
2023-09-05T08:34:10.505Z,5.75
2023-09-05T08:35:10.824Z,6.03
2023-09-05T08:36:10.188Z,6.05
2023-09-05T08:37:07.359Z,5.85
2023-09-05T08:38:08.201Z,7.68
2023-09-05T08:39:07.316Z,6.10
2023-09-05T08:40:07.329Z,6.25
2023-09-05T08:41:04.352Z,6.53
2023-09-05T08:42:06.405Z,5.90
2023-09-05T08:43:04.296Z,6.28
2023-09-05T08:44:01.778Z,5.78
2023-09-05T08:45:02.091Z,5.95
2023-09-05T08:46:02.327Z,6.12
2023-09-05T08:47:00.681Z,6.43
2023-09-05T08:47:59.491Z,6.22
2023-09-05T08:48:58.115Z,6.32
2023-09-05T08:49:55.519Z,6.10
2023-09-05T08:50:52.648Z,6.70
2023-09-05T08:51:54.254Z,6.72
2023-09-05T08:52:52.698Z,6.25
2023-09-05T08:54:01.786Z,6.50
2023-09-05T08:54:59.875Z,6.97
2023-09-05T08:55:58.136Z,6.50
2023-09-05T08:56:55.505Z,7.18
2023-09-05T08:57:55.343Z,7.20
2023-09-05T08:58:54.044Z,7.22
2023-09-05T08:59:52.716Z,6.60
2023-09-05T09:00:52.302Z,6.35
2023-09-05T09:01:49.439Z,6.25
2023-09-05T09:02:46.962Z,6.20
2023-09-05T09:03:44.083Z,6.07
2023-09-05T09:04:54.665Z,6.35
2023-09-05T09:05:51.745Z,5.93
2023-09-05T09:06:55.934Z,6.10
2023-09-05T09:07:55.849Z,6.32
2023-09-05T09:08:53.998Z,5.87
2023-09-05T09:09:51.427Z,6.18
2023-09-05T09:11:07.993Z,5.85
2023-09-05T09:12:05.683Z,5.90
2023-09-05T09:13:20.000Z,5.57
2023-09-05T09:14:23.780Z,6.22
2023-09-05T09:15:20.911Z,5.80
2023-09-05T09:16:18.741Z,5.60
2023-09-05T09:17:17.086Z,5.87
2023-09-05T09:18:15.248Z,5.80
2023-09-05T09:19:16.812Z,6.37
2023-09-05T09:20:14.589Z,5.65
2023-09-05T09:21:18.785Z,5.87
2023-09-05T09:22:23.976Z,5.60
2023-09-05T09:23:32.034Z,5.57
2023-09-05T09:24:40.817Z,5.82
2023-09-05T09:25:47.628Z,5.75
2023-09-05T09:26:44.798Z,5.78
2023-09-05T09:27:43.930Z,6.10
2023-09-05T09:28:41.469Z,5.60
2023-09-05T09:29:41.017Z,6.07
2023-09-05T09:30:38.304Z,5.47
2023-09-05T09:31:35.517Z,5.75
2023-09-05T09:32:32.567Z,5.72
2023-09-05T09:33:35.281Z,6.20
2023-09-05T09:34:34.174Z,5.70
2023-09-05T09:35:31.167Z,5.78
2023-09-05T09:36:36.061Z,6.05
2023-09-05T09:37:33.179Z,6.22
2023-09-05T09:38:30.323Z,5.93
2023-09-05T09:39:30.571Z,5.12
2023-09-05T09:40:27.629Z,5.85
2023-09-05T09:41:24.618Z,5.78
2023-09-05T09:42:24.846Z,5.57
2023-09-05T09:43:21.943Z,5.57
2023-09-05T09:44:39.947Z,5.53
2023-09-05T09:45:38.333Z,5.53
2023-09-05T09:46:35.774Z,5.20
2023-09-05T09:47:34.052Z,5.47
2023-09-05T09:48:32.160Z,5.22
2023-09-05T09:49:31.119Z,5.57
2023-09-05T09:50:28.472Z,5.53
2023-09-05T09:51:27.759Z,5.00
2023-09-05T09:52:25.508Z,5.30
2023-09-05T09:53:32.080Z,5.53
2023-09-05T09:54:33.574Z,5.40
2023-09-05T09:55:33.778Z,5.68
2023-09-05T09:56:31.357Z,5.68
2023-09-05T09:57:43.202Z,5.32
2023-09-05T09:58:42.579Z,5.50
2023-09-05T09:59:44.907Z,5.93
2023-09-05T10:00:48.304Z,5.03
2023-09-05T10:01:45.312Z,5.40
2023-09-05T10:02:44.880Z,5.40
2023-09-05T10:03:44.120Z,5.90
2023-09-05T10:04:42.969Z,5.53
2023-09-05T10:05:43.105Z,5.40
2023-09-05T10:06:40.328Z,6.00
2023-09-05T10:07:38.391Z,5.53
2023-09-05T10:08:38.625Z,5.20
2023-09-05T10:09:39.083Z,5.87
2023-09-05T10:10:40.458Z,5.50
2023-09-05T10:11:37.590Z,5.30
2023-09-05T10:12:37.486Z,5.12
2023-09-05T10:13:36.809Z,5.55
2023-09-05T10:14:35.965Z,5.15
2023-09-05T10:15:34.932Z,5.15
2023-09-05T10:16:32.312Z,5.85
2023-09-05T10:17:31.463Z,5.75
2023-09-05T10:18:30.368Z,6.05
2023-09-05T10:19:27.801Z,6.28
2023-09-05T10:20:28.722Z,5.47
2023-09-05T10:21:27.419Z,5.22
2023-09-05T10:22:25.654Z,5.70
2023-09-05T10:23:25.259Z,6.00
2023-09-05T10:24:24.499Z,5.90
2023-09-05T10:25:21.524Z,5.70
2023-09-05T10:26:18.719Z,6.10
2023-09-05T10:27:16.329Z,6.15
2023-09-05T10:28:13.245Z,5.75
2023-09-05T10:29:32.505Z,5.70
2023-09-05T10:30:29.907Z,5.82
2023-09-05T10:31:27.023Z,5.47
2023-09-05T10:32:26.048Z,5.65
2023-09-05T10:33:45.038Z,5.40
2023-09-05T10:34:59.438Z,5.50
2023-09-05T10:35:56.509Z,5.80
2023-09-05T10:36:54.550Z,5.15
2023-09-05T10:37:52.961Z,5.22
2023-09-05T10:38:56.698Z,5.37
2023-09-05T10:39:57.645Z,5.10
2023-09-05T10:40:54.640Z,4.62
2023-09-05T10:41:52.660Z,5.55
2023-09-05T10:42:55.792Z,5.28
2023-09-05T10:43:56.152Z,5.82
2023-09-05T10:44:53.076Z,5.18
2023-09-05T10:46:17.145Z,5.53
2023-09-05T10:47:30.778Z,5.72
2023-09-05T10:48:47.219Z,5.50
2023-09-05T10:49:47.598Z,5.53
2023-09-05T10:51:07.965Z,5.47
2023-09-05T10:52:20.926Z,5.47
2023-09-05T10:53:18.132Z,5.43
2023-09-05T10:54:31.972Z,5.32
2023-09-05T10:55:33.460Z,5.20
2023-09-05T10:56:46.898Z,5.10
2023-09-05T10:57:44.074Z,5.43
2023-09-05T10:58:52.721Z,5.55
2023-09-05T10:59:49.936Z,5.60
2023-09-05T11:00:49.877Z,5.20
2023-09-05T11:01:53.243Z,5.15
2023-09-05T11:02:51.080Z,5.65
2023-09-05T11:03:48.213Z,5.22
2023-09-05T11:04:46.460Z,5.68
2023-09-05T11:05:43.950Z,4.95
2023-09-05T11:06:44.004Z,5.37
2023-09-05T11:07:44.660Z,4.82
2023-09-05T11:09:48.081Z,5.12
2023-09-05T11:10:45.205Z,5.25
2023-09-05T11:11:46.644Z,6.00
2023-09-05T11:12:43.659Z,5.00
2023-09-05T11:13:50.631Z,5.15
2023-09-05T11:14:48.025Z,5.40
2023-09-05T11:15:45.458Z,5.50
2023-09-05T11:16:48.408Z,5.10
2023-09-05T11:18:00.059Z,5.40
2023-09-05T11:18:57.942Z,4.78
2023-09-05T11:19:55.210Z,4.90
2023-09-05T11:20:52.478Z,5.00
2023-09-05T11:21:49.617Z,5.05
2023-09-05T11:22:46.548Z,4.95
2023-09-05T11:23:52.843Z,4.60
2023-09-05T11:24:59.658Z,5.05
2023-09-05T11:26:02.112Z,5.15
2023-09-05T11:26:59.147Z,4.97
2023-09-05T11:28:00.898Z,4.80
2023-09-05T11:28:58.274Z,4.60
2023-09-05T11:29:57.846Z,5.05
2023-09-05T11:30:59.075Z,5.05
2023-09-05T11:32:00.802Z,5.25
2023-09-05T11:32:57.844Z,4.30
2023-09-05T11:33:54.919Z,4.75
2023-09-05T11:34:54.801Z,4.70
2023-09-05T11:35:52.183Z,5.15
2023-09-05T11:36:49.404Z,4.50
2023-09-05T11:37:47.071Z,4.50
2023-09-05T11:38:48.255Z,4.55
2023-09-05T11:39:46.736Z,4.72
2023-09-05T11:40:59.091Z,5.22
2023-09-05T11:41:59.739Z,4.37
2023-09-05T11:44:01.617Z,4.40
2023-09-05T11:44:59.616Z,4.47
2023-09-05T11:45:58.757Z,4.60
2023-09-05T11:46:56.585Z,4.40
2023-09-05T11:47:53.933Z,4.30
2023-09-05T11:48:52.072Z,4.45
2023-09-05T11:49:50.025Z,4.70
2023-09-05T11:50:47.448Z,4.30
2023-09-05T11:51:44.513Z,4.60
2023-09-05T11:52:42.198Z,4.70
2023-09-05T11:53:39.188Z,4.30
2023-09-05T11:54:36.483Z,4.30
2023-09-05T11:55:33.842Z,4.60
2023-09-05T11:56:31.849Z,4.28
2023-09-05T11:57:28.946Z,4.28
2023-09-05T11:58:27.872Z,4.68
2023-09-05T11:59:26.287Z,3.90
2023-09-05T12:00:27.553Z,4.62
2023-09-05T12:01:31.553Z,4.90
2023-09-05T12:02:29.397Z,4.72
2023-09-05T12:03:26.565Z,4.45
2023-09-05T12:04:24.956Z,4.47
2023-09-05T12:05:22.268Z,4.45
2023-09-05T12:06:22.668Z,4.00
2023-09-05T12:07:25.094Z,4.50
2023-09-05T12:08:35.743Z,4.43
2023-09-05T12:09:35.048Z,4.45
2023-09-05T12:10:40.178Z,4.35
2023-09-05T12:11:37.507Z,4.60
2023-09-05T12:12:34.428Z,4.35
2023-09-05T12:13:41.569Z,4.40
2023-09-05T12:14:47.948Z,4.68
2023-09-05T12:15:46.657Z,4.30
2023-09-05T12:16:48.078Z,4.22
2023-09-05T12:17:48.429Z,3.92
2023-09-05T12:18:47.143Z,4.30
2023-09-05T12:19:44.588Z,3.95
2023-09-05T12:20:41.517Z,4.25
2023-09-05T12:21:45.707Z,4.00
2023-09-05T12:22:48.565Z,4.25
2023-09-05T12:23:45.606Z,4.45
2023-09-05T12:24:42.836Z,4.30
2023-09-05T12:26:51.072Z,4.10
2023-09-05T12:27:49.520Z,4.20
2023-09-05T12:28:59.593Z,4.00
2023-09-05T12:29:57.032Z,3.97
2023-09-05T12:31:10.013Z,4.20
2023-09-05T12:32:08.171Z,4.00
2023-09-05T12:33:05.626Z,4.30
2023-09-05T12:34:02.780Z,4.05
2023-09-05T12:35:00.191Z,4.37
2023-09-05T12:35:57.258Z,4.10
2023-09-05T12:36:54.279Z,4.20
2023-09-05T12:37:51.520Z,4.37
2023-09-05T12:38:48.590Z,4.40
2023-09-05T12:39:45.836Z,4.47
2023-09-05T12:40:45.347Z,4.25
2023-09-05T12:41:42.422Z,4.55
2023-09-05T12:42:39.472Z,4.40
2023-09-05T12:43:37.808Z,4.40
2023-09-05T12:44:34.944Z,3.95
2023-09-05T12:45:34.306Z,3.95
2023-09-05T12:46:31.496Z,4.53
2023-09-05T12:47:31.177Z,4.37
2023-09-05T12:48:28.777Z,4.30
2023-09-05T12:49:26.030Z,4.00
2023-09-05T12:50:31.516Z,4.18
2023-09-05T12:51:30.829Z,4.20
2023-09-05T12:52:31.349Z,4.37
2023-09-05T12:53:29.392Z,4.30
2023-09-05T12:54:28.456Z,4.10
2023-09-05T12:55:25.551Z,4.20
2023-09-05T12:56:24.498Z,4.20